createdAt,value
2022-08-31T00:00:58.279Z,21.51
2022-08-31T00:03:45.297Z,21.49
2022-08-31T00:06:12.672Z,21.20
2022-08-31T00:08:40.322Z,21.40
2022-08-31T00:11:10.296Z,21.50
2022-08-31T00:13:37.713Z,21.33
2022-08-31T00:16:05.669Z,21.80
2022-08-31T00:18:33.120Z,21.76
2022-08-31T00:21:00.912Z,21.83
2022-08-31T00:23:28.578Z,22.00
2022-08-31T00:25:56.033Z,21.75
2022-08-31T00:28:23.628Z,21.92
2022-08-31T00:30:51.273Z,21.66
2022-08-31T00:33:18.745Z,21.74
2022-08-31T00:35:46.575Z,21.37
2022-08-31T00:38:14.911Z,21.59
2022-08-31T00:40:45.852Z,21.45
2022-08-31T00:43:38.211Z,21.56
2022-08-31T00:46:06.352Z,21.40
2022-08-31T00:48:35.793Z,21.47
2022-08-31T00:51:04.065Z,21.63
2022-08-31T00:53:31.462Z,21.43
2022-08-31T00:55:59.297Z,21.47
2022-08-31T00:58:27.083Z,21.63
2022-08-31T01:00:54.554Z,21.21
2022-08-31T01:03:23.045Z,21.42
2022-08-31T01:05:51.017Z,21.52
2022-08-31T01:08:18.866Z,21.52
2022-08-31T01:10:55.183Z,21.47
2022-08-31T01:13:22.623Z,21.19
2022-08-31T01:15:58.124Z,21.31
2022-08-31T01:18:25.874Z,21.38
2022-08-31T01:21:00.915Z,21.13
2022-08-31T01:23:42.756Z,21.38
2022-08-31T01:26:13.826Z,21.56
2022-08-31T01:28:41.515Z,21.12
2022-08-31T01:31:14.286Z,21.38
2022-08-31T01:33:42.111Z,20.89
2022-08-31T01:36:13.168Z,20.90
2022-08-31T01:38:44.236Z,21.00
2022-08-31T01:41:12.976Z,21.28
2022-08-31T01:43:41.878Z,21.10
2022-08-31T01:46:13.196Z,20.92
2022-08-31T01:48:43.359Z,20.48
2022-08-31T01:51:12.833Z,20.04
2022-08-31T01:53:42.144Z,20.20
2022-08-31T01:56:14.527Z,20.41
2022-08-31T01:58:42.098Z,19.93
2022-08-31T02:01:32.669Z,20.49
2022-08-31T02:04:02.535Z,20.55
2022-08-31T02:06:30.719Z,20.50
2022-08-31T02:08:58.470Z,20.30
2022-08-31T02:11:26.236Z,20.31
2022-08-31T02:13:53.760Z,20.36
2022-08-31T02:16:21.481Z,20.08
2022-08-31T02:18:48.966Z,20.21
2022-08-31T02:21:16.515Z,20.55
2022-08-31T02:23:44.622Z,20.53
2022-08-31T02:26:12.455Z,20.40
2022-08-31T02:28:40.421Z,20.35
2022-08-31T02:31:08.743Z,20.11
2022-08-31T02:33:37.869Z,20.18
2022-08-31T02:36:06.513Z,20.49
2022-08-31T02:38:35.352Z,20.49
2022-08-31T02:41:03.736Z,19.79
2022-08-31T02:43:31.598Z,20.01
2022-08-31T02:45:59.070Z,19.85
2022-08-31T02:48:27.444Z,20.23
2022-08-31T02:50:55.069Z,19.62
2022-08-31T02:53:23.498Z,19.76
2022-08-31T02:55:52.087Z,20.30
2022-08-31T02:58:23.834Z,19.77
2022-08-31T03:00:52.480Z,19.81
2022-08-31T03:03:20.460Z,19.69
2022-08-31T03:05:49.590Z,19.80
2022-08-31T03:08:17.879Z,19.91
2022-08-31T03:10:46.425Z,19.90
2022-08-31T03:13:13.877Z,19.86
2022-08-31T03:15:43.936Z,20.12
2022-08-31T03:18:12.173Z,20.12
2022-08-31T03:20:39.566Z,20.20
2022-08-31T03:23:09.275Z,20.15
2022-08-31T03:25:39.609Z,19.85
2022-08-31T03:28:07.941Z,19.94
2022-08-31T03:30:35.795Z,19.59
2022-08-31T03:33:03.598Z,19.94
2022-08-31T03:35:31.739Z,19.96
2022-08-31T03:37:59.198Z,20.17
2022-08-31T03:40:26.643Z,19.97
2022-08-31T03:42:54.447Z,19.25
2022-08-31T03:45:21.935Z,19.40
2022-08-31T03:47:49.338Z,19.18
2022-08-31T03:50:17.350Z,19.51
2022-08-31T03:52:46.279Z,19.36
2022-08-31T03:55:14.057Z,19.20
2022-08-31T03:57:41.835Z,19.32
2022-08-31T04:00:10.157Z,19.30
2022-08-31T04:02:40.910Z,19.67
2022-08-31T04:05:17.967Z,19.97
2022-08-31T04:07:56.809Z,19.83
2022-08-31T04:10:31.313Z,19.78
2022-08-31T04:13:05.832Z,19.59
2022-08-31T04:15:36.390Z,19.30
2022-08-31T04:18:06.218Z,19.46
2022-08-31T04:20:38.541Z,18.69
2022-08-31T04:23:06.315Z,19.11
2022-08-31T04:25:38.846Z,19.10
2022-08-31T04:28:09.079Z,18.90
2022-08-31T04:30:41.177Z,19.24
2022-08-31T04:33:09.297Z,19.37
2022-08-31T04:35:39.799Z,19.49
2022-08-31T04:38:07.449Z,19.70
2022-08-31T04:40:39.027Z,19.54
2022-08-31T04:43:07.880Z,19.37
2022-08-31T04:45:35.396Z,20.04
2022-08-31T04:48:03.373Z,19.88
2022-08-31T04:50:31.316Z,19.90
2022-08-31T04:53:06.885Z,20.53
2022-08-31T04:55:34.373Z,20.49
2022-08-31T04:58:01.801Z,20.55
2022-08-31T05:00:29.479Z,20.78
2022-08-31T05:02:59.208Z,20.98
2022-08-31T05:05:26.654Z,20.97
2022-08-31T05:07:54.366Z,20.94
2022-08-31T05:10:23.333Z,21.12
2022-08-31T05:12:52.354Z,21.70
2022-08-31T05:15:20.605Z,21.89
2022-08-31T05:17:48.321Z,21.95
2022-08-31T05:20:15.736Z,22.19
2022-08-31T05:22:43.446Z,21.90
2022-08-31T05:25:11.216Z,22.45
2022-08-31T05:27:39.683Z,22.45
2022-08-31T05:30:08.561Z,22.60
2022-08-31T05:32:37.964Z,22.64
2022-08-31T05:35:07.712Z,22.65
2022-08-31T05:37:35.189Z,22.74
2022-08-31T05:40:02.889Z,22.85
2022-08-31T05:42:30.614Z,23.31
2022-08-31T05:44:58.367Z,23.58
2022-08-31T05:47:25.784Z,23.66
2022-08-31T05:49:54.055Z,23.74
2022-08-31T05:52:24.797Z,23.64
2022-08-31T05:54:53.043Z,23.58
2022-08-31T05:57:23.420Z,23.88
2022-08-31T05:59:54.837Z,24.26
2022-08-31T06:02:22.282Z,23.75
2022-08-31T06:04:51.987Z,23.90
2022-08-31T06:07:19.937Z,24.12
2022-08-31T06:09:47.727Z,23.72
2022-08-31T06:12:17.518Z,23.78
2022-08-31T06:14:47.902Z,24.02
2022-08-31T06:17:17.750Z,24.58
2022-08-31T06:19:45.288Z,24.51
2022-08-31T06:22:12.694Z,24.11
2022-08-31T06:24:40.862Z,24.19
2022-08-31T06:27:08.334Z,23.99
2022-08-31T06:29:36.524Z,23.22
2022-08-31T06:32:10.071Z,23.98
2022-08-31T06:34:39.588Z,23.99
2022-08-31T06:37:18.953Z,23.93
2022-08-31T06:39:47.771Z,23.64
2022-08-31T06:42:15.642Z,23.92
2022-08-31T06:44:45.788Z,23.99
2022-08-31T06:47:14.103Z,24.32
2022-08-31T06:49:41.846Z,24.67
2022-08-31T06:52:09.301Z,24.40
2022-08-31T06:54:37.041Z,24.50
2022-08-31T06:57:17.159Z,24.63
2022-08-31T06:59:45.852Z,24.46
2022-08-31T07:02:13.665Z,23.93
2022-08-31T07:04:41.346Z,24.37
2022-08-31T07:07:11.476Z,24.08
2022-08-31T07:09:41.190Z,23.99
2022-08-31T07:12:09.186Z,23.75
2022-08-31T07:14:37.617Z,23.68
2022-08-31T07:17:06.034Z,23.88
2022-08-31T07:19:33.796Z,24.37
2022-08-31T07:22:05.184Z,24.37
2022-08-31T07:24:35.154Z,23.87
2022-08-31T07:27:10.998Z,23.43
2022-08-31T07:29:43.230Z,23.63
2022-08-31T07:32:12.891Z,24.10
2022-08-31T07:34:41.197Z,24.39
2022-08-31T07:37:28.785Z,24.70
2022-08-31T07:40:15.592Z,24.37
2022-08-31T07:42:44.796Z,24.91
2022-08-31T07:45:23.073Z,25.43
2022-08-31T07:47:52.767Z,25.44
2022-08-31T07:50:22.118Z,25.37
2022-08-31T07:52:54.587Z,25.46
2022-08-31T07:55:29.187Z,25.19
2022-08-31T07:57:58.063Z,25.79
2022-08-31T08:00:29.210Z,25.08
2022-08-31T08:03:01.694Z,24.20
2022-08-31T08:05:37.386Z,24.48
2022-08-31T08:08:12.249Z,24.39
2022-08-31T08:10:43.659Z,24.80
2022-08-31T08:13:20.548Z,25.36
2022-08-31T08:15:51.899Z,25.56
2022-08-31T08:18:20.650Z,25.12
2022-08-31T08:20:49.500Z,24.71
2022-08-31T08:23:18.314Z,25.17
2022-08-31T08:25:47.379Z,25.01
2022-08-31T08:28:39.780Z,24.67
2022-08-31T08:31:13.311Z,24.52
2022-08-31T08:33:40.924Z,24.86
2022-08-31T08:36:09.086Z,25.23
2022-08-31T08:38:39.562Z,24.82
2022-08-31T08:41:12.889Z,25.26
2022-08-31T08:43:50.134Z,25.09
2022-08-31T08:47:35.187Z,24.61
2022-08-31T08:49:23.446Z,24.56
2022-08-31T08:51:56.747Z,25.29
2022-08-31T08:54:36.338Z,25.18
2022-08-31T08:57:23.782Z,25.18
2022-08-31T08:59:54.972Z,25.55
2022-08-31T09:02:35.458Z,24.88
2022-08-31T09:05:39.495Z,25.84
2022-08-31T09:08:29.090Z,25.90
2022-08-31T09:11:18.599Z,25.49
2022-08-31T09:14:08.145Z,26.27
2022-08-31T09:17:33.978Z,25.86
2022-08-31T09:20:05.677Z,26.02
2022-08-31T09:22:56.037Z,26.19
2022-08-31T09:25:38.672Z,26.30
2022-08-31T09:28:08.691Z,26.07
2022-08-31T09:30:45.114Z,26.05
2022-08-31T09:33:26.821Z,25.96
2022-08-31T09:36:13.742Z,25.10
2022-08-31T09:38:43.522Z,25.73
2022-08-31T09:41:29.347Z,25.76
2022-08-31T09:44:21.771Z,25.31
2022-08-31T09:46:54.680Z,25.93
2022-08-31T09:49:26.719Z,26.39
2022-08-31T09:52:18.975Z,26.52
2022-08-31T09:55:17.567Z,26.21
2022-08-31T09:58:04.398Z,26.40
2022-08-31T10:00:36.656Z,26.83
2022-08-31T10:03:28.350Z,26.69
2022-08-31T10:05:56.966Z,26.93
2022-08-31T10:08:57.060Z,26.64
2022-08-31T10:11:27.156Z,27.00
2022-08-31T10:14:00.531Z,27.08
2022-08-31T10:16:52.404Z,27.08
2022-08-31T10:19:51.797Z,26.72
2022-08-31T10:22:28.273Z,26.94
2022-08-31T10:25:12.815Z,26.86
2022-08-31T10:27:48.674Z,27.68
2022-08-31T10:30:31.648Z,27.55
2022-08-31T10:33:12.105Z,27.87
2022-08-31T10:35:58.002Z,27.38
2022-08-31T10:38:31.530Z,27.65
2022-08-31T10:41:18.719Z,27.58
2022-08-31T10:44:26.812Z,27.30
2022-08-31T10:46:59.025Z,27.92
2022-08-31T10:49:26.597Z,27.94
2022-08-31T10:52:02.421Z,27.46
2022-08-31T10:54:50.345Z,26.78
2022-08-31T10:57:31.474Z,27.15
2022-08-31T11:00:31.819Z,27.31
2022-08-31T11:03:26.113Z,26.95
2022-08-31T11:06:00.435Z,27.11
2022-08-31T11:08:34.708Z,27.74
2022-08-31T11:11:05.994Z,27.73
2022-08-31T11:13:51.220Z,27.65
2022-08-31T11:16:54.086Z,27.32
2022-08-31T11:20:00.696Z,28.15
2022-08-31T11:22:40.962Z,27.34
2022-08-31T11:25:47.558Z,27.70
2022-08-31T11:28:34.285Z,28.20
2022-08-31T11:31:06.634Z,28.58
2022-08-31T11:33:34.934Z,28.11
2022-08-31T11:36:10.235Z,27.84
2022-08-31T11:39:03.629Z,27.85
2022-08-31T11:41:31.201Z,27.54
2022-08-31T11:44:04.414Z,28.60
2022-08-31T11:46:35.050Z,29.20
2022-08-31T11:49:02.457Z,29.45
2022-08-31T11:51:38.621Z,28.43
2022-08-31T11:54:26.560Z,28.15
2022-08-31T11:56:56.716Z,27.54
2022-08-31T11:59:32.693Z,28.07
2022-08-31T12:02:20.038Z,27.74
2022-08-31T12:04:53.808Z,27.83
2022-08-31T12:07:39.342Z,28.03
2022-08-31T12:10:08.968Z,28.41
2022-08-31T12:12:57.511Z,28.30
2022-08-31T12:15:39.565Z,28.43
2022-08-31T12:18:29.108Z,28.39
2022-08-31T12:21:48.812Z,27.97
2022-08-31T12:24:34.181Z,28.22
2022-08-31T12:27:31.425Z,28.65
2022-08-31T12:30:18.483Z,29.08
2022-08-31T12:33:09.016Z,28.17
2022-08-31T12:35:37.705Z,28.49
2022-08-31T12:38:10.675Z,29.00
2022-08-31T12:40:45.981Z,28.38
2022-08-31T12:43:20.212Z,28.60
2022-08-31T12:46:09.087Z,29.08
2022-08-31T12:49:07.766Z,28.36
2022-08-31T12:51:47.108Z,28.53
2022-08-31T12:54:27.111Z,28.37
2022-08-31T12:57:09.762Z,28.27
2022-08-31T13:00:07.810Z,27.65
2022-08-31T13:02:47.386Z,27.48
2022-08-31T13:05:27.305Z,28.10
2022-08-31T13:07:54.954Z,28.15
2022-08-31T13:10:22.460Z,28.43
2022-08-31T13:12:57.993Z,28.84
2022-08-31T13:15:39.155Z,28.62
2022-08-31T13:18:21.214Z,28.91
2022-08-31T13:20:53.679Z,28.40
2022-08-31T13:23:28.690Z,27.99
2022-08-31T13:26:09.957Z,28.90
2022-08-31T13:28:37.336Z,29.07
2022-08-31T13:31:12.032Z,29.90
2022-08-31T13:33:40.662Z,29.61
2022-08-31T13:36:33.359Z,29.35
2022-08-31T13:39:11.806Z,29.45
2022-08-31T13:41:56.217Z,28.65
2022-08-31T13:44:31.796Z,29.09
2022-08-31T13:47:02.982Z,29.28
2022-08-31T13:49:35.451Z,29.51
2022-08-31T13:52:06.514Z,28.80
2022-08-31T13:54:35.994Z,28.08
2022-08-31T13:57:22.774Z,28.00
2022-08-31T13:59:50.325Z,28.83
2022-08-31T14:02:22.148Z,29.45
2022-08-31T14:04:58.115Z,29.84
2022-08-31T14:07:43.927Z,29.55
2022-08-31T14:10:15.043Z,29.42
2022-08-31T14:13:05.148Z,29.65
2022-08-31T14:15:54.181Z,30.02
2022-08-31T14:18:28.330Z,30.45
2022-08-31T14:21:26.928Z,29.93
2022-08-31T14:24:04.740Z,29.28
2022-08-31T14:26:37.686Z,29.54
2022-08-31T14:29:11.032Z,29.43
2022-08-31T14:31:41.413Z,28.80
2022-08-31T14:34:36.638Z,29.23
2022-08-31T14:37:19.893Z,28.93
2022-08-31T14:39:54.105Z,28.26
2022-08-31T14:42:43.554Z,28.13
2022-08-31T14:45:18.735Z,28.13
2022-08-31T14:47:50.748Z,29.03
2022-08-31T14:50:23.626Z,28.83
2022-08-31T14:52:58.441Z,28.90
2022-08-31T14:55:27.450Z,28.62
2022-08-31T14:58:10.964Z,27.92
2022-08-31T15:00:49.779Z,27.87
2022-08-31T15:03:24.449Z,27.74
2022-08-31T15:05:51.866Z,27.87
2022-08-31T15:08:23.278Z,27.61
2022-08-31T15:11:07.272Z,27.87
2022-08-31T15:13:39.107Z,28.17
2022-08-31T15:16:08.135Z,28.42
2022-08-31T15:18:36.350Z,27.74
2022-08-31T15:21:05.312Z,28.33
2022-08-31T15:23:33.938Z,28.47
2022-08-31T15:26:08.024Z,28.12
2022-08-31T15:28:40.858Z,27.77
2022-08-31T15:31:25.549Z,27.57
2022-08-31T15:33:55.349Z,27.91
2022-08-31T15:36:25.727Z,28.27
2022-08-31T15:38:56.195Z,27.97
2022-08-31T15:41:26.784Z,27.93
2022-08-31T15:43:54.519Z,27.64
2022-08-31T15:46:40.843Z,27.89
2022-08-31T15:49:10.583Z,28.19
2022-08-31T15:51:46.916Z,27.78
2022-08-31T15:54:22.188Z,28.09
2022-08-31T15:56:54.083Z,28.22
2022-08-31T15:59:22.943Z,28.14
2022-08-31T16:01:51.616Z,28.09
2022-08-31T16:04:23.676Z,28.06
2022-08-31T16:06:52.831Z,27.86
2022-08-31T16:09:21.330Z,27.79
2022-08-31T16:11:50.579Z,28.07
2022-08-31T16:14:18.441Z,28.13
2022-08-31T16:16:48.458Z,28.45
2022-08-31T16:19:34.125Z,27.97
2022-08-31T16:22:04.510Z,28.25
2022-08-31T16:24:37.040Z,28.10
2022-08-31T16:27:08.045Z,27.95
2022-08-31T16:29:36.129Z,28.06
2022-08-31T16:32:06.750Z,28.19
2022-08-31T16:34:36.079Z,28.27
2022-08-31T16:37:10.499Z,28.21
2022-08-31T16:39:40.559Z,28.15
2022-08-31T16:42:11.020Z,28.32
2022-08-31T16:44:40.071Z,28.48
2022-08-31T16:47:09.705Z,28.36
2022-08-31T16:49:40.330Z,28.36
2022-08-31T16:52:11.127Z,27.96
2022-08-31T16:54:45.051Z,27.57
2022-08-31T16:57:14.630Z,27.47
2022-08-31T16:59:42.117Z,27.49
2022-08-31T17:02:14.228Z,27.49
2022-08-31T17:04:58.842Z,27.61
2022-08-31T17:07:26.157Z,27.60
2022-08-31T17:10:01.895Z,27.91
2022-08-31T17:12:29.378Z,27.74
2022-08-31T17:14:58.193Z,27.98
2022-08-31T17:17:26.575Z,27.82
2022-08-31T17:19:58.746Z,27.22
2022-08-31T17:22:32.478Z,27.42
2022-08-31T17:25:04.497Z,27.04
2022-08-31T17:27:33.865Z,26.87
2022-08-31T17:30:05.331Z,26.73
2022-08-31T17:32:36.562Z,26.56
2022-08-31T17:35:17.531Z,26.57
2022-08-31T17:37:45.841Z,26.43
2022-08-31T17:40:14.568Z,26.73
2022-08-31T17:42:44.382Z,27.14
2022-08-31T17:45:12.224Z,26.89
2022-08-31T17:47:40.131Z,27.08
2022-08-31T17:50:08.164Z,27.28
2022-08-31T17:52:35.946Z,27.02
2022-08-31T17:55:04.055Z,26.58
2022-08-31T17:57:31.454Z,26.43
2022-08-31T17:59:59.152Z,26.73
2022-08-31T18:02:32.423Z,26.61
2022-08-31T18:05:01.511Z,26.13
2022-08-31T18:07:29.060Z,26.19
2022-08-31T18:09:56.801Z,26.13
2022-08-31T18:12:25.760Z,26.06
2022-08-31T18:14:53.991Z,25.97
2022-08-31T18:17:22.463Z,25.83
2022-08-31T18:19:50.566Z,25.96
2022-08-31T18:22:19.871Z,26.10
2022-08-31T18:24:47.350Z,26.42
2022-08-31T18:27:17.599Z,26.60
2022-08-31T18:29:46.377Z,26.59
2022-08-31T18:32:14.275Z,26.51
2022-08-31T18:34:47.443Z,26.57
2022-08-31T18:37:22.238Z,26.65
2022-08-31T18:40:09.061Z,26.71
2022-08-31T18:42:57.006Z,26.79
2022-08-31T18:45:27.191Z,26.82
2022-08-31T18:50:46.768Z,26.59
2022-08-31T18:53:29.314Z,26.60
2022-08-31T18:56:09.111Z,26.80
2022-08-31T18:58:38.120Z,27.01
2022-08-31T19:01:10.244Z,26.34
2022-08-31T19:03:38.142Z,26.62
2022-08-31T19:06:07.012Z,26.19
2022-08-31T19:08:35.913Z,26.02
2022-08-31T19:11:07.318Z,26.14
2022-08-31T19:13:35.400Z,26.19
2022-08-31T19:16:14.712Z,26.05
2022-08-31T19:18:44.662Z,25.53
2022-08-31T19:21:17.595Z,24.67
2022-08-31T19:23:46.517Z,24.74
2022-08-31T19:26:27.643Z,24.78
2022-08-31T19:28:56.467Z,24.57
2022-08-31T19:31:26.970Z,24.59
2022-08-31T19:33:58.069Z,24.49
2022-08-31T19:36:27.751Z,24.68
2022-08-31T19:38:56.593Z,24.32
2022-08-31T19:41:25.906Z,24.60
2022-08-31T19:44:07.263Z,24.36
2022-08-31T19:46:41.597Z,24.36
2022-08-31T19:49:11.308Z,24.20
2022-08-31T19:51:42.249Z,24.05
2022-08-31T19:54:12.583Z,24.00
2022-08-31T19:56:43.943Z,24.12
2022-08-31T19:59:18.481Z,23.78
2022-08-31T20:01:48.076Z,23.72
2022-08-31T20:04:17.123Z,23.65
2022-08-31T20:06:45.720Z,23.26
2022-08-31T20:09:13.619Z,23.05
2022-08-31T20:11:42.632Z,23.36
2022-08-31T20:14:10.787Z,23.57
2022-08-31T20:16:43.103Z,23.06
2022-08-31T20:19:14.534Z,23.15
2022-08-31T20:21:42.236Z,23.30
2022-08-31T20:24:12.807Z,23.18
2022-08-31T20:26:47.310Z,23.08
2022-08-31T20:29:20.086Z,23.11
2022-08-31T20:31:50.637Z,22.81
2022-08-31T20:34:21.782Z,22.98
2022-08-31T20:36:52.294Z,22.88
2022-08-31T20:39:20.052Z,22.70
2022-08-31T20:41:50.147Z,22.55
2022-08-31T20:44:21.414Z,22.70
2022-08-31T20:47:13.002Z,22.52
2022-08-31T20:49:44.191Z,22.33
2022-08-31T20:52:14.453Z,22.38
2022-08-31T20:54:45.121Z,22.56
2022-08-31T20:57:13.764Z,22.67
2022-08-31T20:59:41.565Z,22.31
2022-08-31T21:02:10.205Z,22.50
2022-08-31T21:04:43.905Z,22.38
2022-08-31T21:07:13.211Z,22.27
2022-08-31T21:09:43.051Z,22.25
2022-08-31T21:12:17.875Z,22.76
2022-08-31T21:14:46.495Z,22.65
2022-08-31T21:17:15.888Z,21.97
2022-08-31T21:19:44.069Z,22.14
2022-08-31T21:22:14.062Z,22.34
2022-08-31T21:24:43.563Z,22.23
2022-08-31T21:27:14.381Z,22.35
2022-08-31T21:29:43.529Z,22.24
2022-08-31T21:32:10.965Z,22.66
2022-08-31T21:34:38.451Z,22.20
2022-08-31T21:37:08.548Z,22.24
2022-08-31T21:39:36.991Z,22.37
2022-08-31T21:42:04.665Z,22.47
2022-08-31T21:44:32.435Z,21.85
2022-08-31T21:46:59.830Z,21.77
2022-08-31T21:49:27.220Z,21.96
2022-08-31T21:51:56.474Z,21.95
2022-08-31T21:54:27.373Z,21.76
2022-08-31T21:56:57.441Z,21.95
2022-08-31T21:59:27.909Z,21.73
2022-08-31T22:02:00.278Z,21.66
2022-08-31T22:04:29.164Z,22.05
2022-08-31T22:06:57.728Z,22.01
2022-08-31T22:09:26.276Z,22.04
2022-08-31T22:11:56.577Z,22.19
2022-08-31T22:14:30.319Z,22.15
2022-08-31T22:16:59.508Z,21.99
2022-08-31T22:19:28.501Z,22.11
2022-08-31T22:22:00.905Z,21.65
2022-08-31T22:24:31.396Z,21.66
2022-08-31T22:27:01.640Z,21.77
2022-08-31T22:29:31.651Z,21.81
2022-08-31T22:32:02.294Z,21.87
2022-08-31T22:34:29.999Z,21.44
2022-08-31T22:36:57.466Z,21.89
2022-08-31T22:39:28.482Z,21.83
2022-08-31T22:41:57.461Z,22.07
2022-08-31T22:44:26.734Z,22.27
2022-08-31T22:46:57.064Z,22.12
2022-08-31T22:49:25.961Z,22.57
2022-08-31T22:51:54.357Z,22.79
2022-08-31T22:54:22.021Z,22.90
2022-08-31T22:56:50.181Z,22.37
2022-08-31T22:59:27.146Z,22.10
2022-08-31T23:01:59.198Z,22.55
2022-08-31T23:04:28.133Z,22.32
2022-08-31T23:06:57.467Z,22.81
2022-08-31T23:09:27.817Z,22.13
2022-08-31T23:11:56.809Z,22.50
2022-08-31T23:14:24.551Z,22.38
2022-08-31T23:16:58.964Z,22.18
2022-08-31T23:19:32.756Z,21.80
2022-08-31T23:22:01.581Z,21.60
2022-08-31T23:24:41.269Z,21.42
2022-08-31T23:27:10.367Z,21.22
2022-08-31T23:29:40.668Z,21.36
2022-08-31T23:32:12.037Z,21.17
2022-08-31T23:34:41.755Z,20.06
2022-08-31T23:37:10.601Z,19.88
2022-08-31T23:39:40.962Z,20.50
2022-08-31T23:42:11.201Z,20.31
2022-08-31T23:44:42.653Z,19.87
2022-08-31T23:47:13.583Z,20.48
2022-08-31T23:49:42.433Z,20.46
2022-08-31T23:52:11.964Z,20.35
2022-08-31T23:54:39.898Z,20.07
2022-08-31T23:57:08.482Z,19.63
2022-08-31T23:59:52.919Z,19.23
